Rowlett, TX

12:13 AM CDT on August 24, 2016 (GMT -0500)
Rowlett - Springfield Lakes | | Change Station

Elev 450 ft 32.92 °N, 96.59 °W | Updated 1 second ago

Clear
Clear
81.5 °F
Feels Like 87 °F
N
6.9
Wind Variable Wind from SSW
Gusts 7.0 mph

Today
High -- | Low -- °F
--% Chance of Precip.
Yesterday
High -- | Low -- °F
Precip. -- in
Pressure 30.08 in
Visibility 10.0 miles
Clouds Clear
Heat Index 87 °F
Dew Point 74 °F
Humidity 79%
Rainfall 0.00 in
Snow Depth Not available.
6:55 AM 8:00 PM
Waning Gibbous, 61% visible
METAR KF46 240455Z AUTO 17006KT 10SM CLR 27/23 A3008 RMK AO2 T02660230
Pressure 30.08 in
Visibility 10.0 miles
Clouds Clear
Heat Index 87 °F
Dew Point 74 °F
Humidity 79%
Rainfall 0.00 in
Snow Depth Not available.
6:55 AM 8:00 PM
Waning Gibbous, 61% visible
METAR KF46 240455Z AUTO 17006KT 10SM CLR 27/23 A3008 RMK AO2 T02660230

10-Day Weather Forecast

Almanac

Astronomy

Aug. 24, 2016 Rise Set
Actual Time
Civil Twilight
Nautical Twilight
Astronomical Twilight
Moon
Length of Visible Light
Length of Day
Tomorrow will be .
, % of the Moon is Illuminated

Today's Extremes

State Highs State Lows

Community

WunderPhotos

Upload Photos

1,934,554 photos uploaded!

WunderBlog® & News

Nearby

Air Quality

  Air Quality AQ Index Pollutant
Not available.

Snow Depth

Station Depth Elevation

Earthquake Activity

City Distance Mag. Time & Date
Minimum magnitude displayed is 2.5.

Coastal Water Temperatures

Place Temperature

Stations

Nearby Weather Stations

Station Location Temp. Windchill Dew Point Humidity Wind Precip. Elev Updated Type
                   

Watches & Warnings

There are currently no watches in effect.